Time;durP1;ratioP1;P1;durP2;ratioP2;P2;SDS_P1;SDS_P2;PMS_P1;PMS_P2;Temp;Humidity;BMP_temperature;BMP_pressure;BME280_temperature;BME280_humidity;BME280_pressure;Samples;Min_cycle;Max_cycle;Signal;HPM_P1;HPM_P2
2022/01/01 00:02:15;;;;;;;6.03;2.95;;;;;;;;;;5114428;28;20027;-77
2022/01/01 00:04:42;;;;;;;7.85;2.80;;;;;;;;;;5114113;28;20024;-77
2022/01/01 00:07:08;;;;;;;5.80;2.88;;;;;;;;;;5113922;28;20035;-77
2022/01/01 00:09:34;;;;;;;6.40;2.88;;;;;;;;;;5113919;28;20027;-77
2022/01/01 00:12:00;;;;;;;7.28;2.75;;;;;;;;;;5114061;28;20479;-77
2022/01/01 00:14:26;;;;;;;5.75;2.90;;;;;;;;;;5113920;28;20035;-76
2022/01/01 00:16:52;;;;;;;4.70;2.55;;;;;;;;;;5095617;28;20042;-78
2022/01/01 00:19:18;;;;;;;7.03;3.38;;;;;;;;;;5113801;28;20079;-77
2022/01/01 00:21:44;;;;;;;5.95;2.63;;;;;;;;;;5113997;28;20452;-77
2022/01/01 00:24:11;;;;;;;5.78;2.80;;;;;;;;;;5113752;28;20034;-77
2022/01/01 00:26:37;;;;;;;5.80;2.60;;;;;;;;;;5095276;28;20122;-78
2022/01/01 00:29:03;;;;;;;6.32;2.92;;;;;;;;;;5095410;28;20016;-78
2022/01/01 00:31:30;;;;;;;5.72;2.97;;;;;;;;;;5113655;28;20051;-77
2022/01/01 00:33:57;;;;;;;5.45;2.67;;;;;;;;;;5113528;28;20031;-78
2022/01/01 00:36:23;;;;;;;5.57;2.70;;;;;;;;;;5095306;28;20028;-77
2022/01/01 00:38:49;;;;;;;6.13;2.80;;;;;;;;;;5113524;28;20111;-77
2022/01/01 00:41:15;;;;;;;8.13;2.88;;;;;;;;;;5113698;28;20157;-77
2022/01/01 00:43:41;;;;;;;5.45;2.60;;;;;;;;;;5113240;28;20028;-78
2022/01/01 00:46:07;;;;;;;4.70;2.55;;;;;;;;;;5113354;28;20386;-77
2022/01/01 00:48:33;;;;;;;3.90;2.40;;;;;;;;;;5113412;28;20073;-78
2022/01/01 00:50:59;;;;;;;7.57;2.47;;;;;;;;;;5113216;28;20101;-78
2022/01/01 00:53:25;;;;;;;6.07;3.03;;;;;;;;;;5113204;28;20019;-79
2022/01/01 00:55:51;;;;;;;5.55;3.15;;;;;;;;;;5113062;28;20034;-77
2022/01/01 00:58:17;;;;;;;5.40;2.75;;;;;;;;;;5113545;28;20471;-78
2022/01/01 01:00:43;;;;;;;5.32;2.88;;;;;;;;;;5113146;28;20069;-78
2022/01/01 01:03:10;;;;;;;5.93;3.00;;;;;;;;;;5112889;28;20467;-78
2022/01/01 01:05:38;;;;;;;5.15;2.88;;;;;;;;;;5112437;28;20035;-78
2022/01/01 01:08:04;;;;;;;6.25;2.88;;;;;;;;;;5112528;28;20019;-78
2022/01/01 01:10:30;;;;;;;6.72;2.75;;;;;;;;;;5112830;28;20034;-77
2022/01/01 01:12:56;;;;;;;10.75;2.95;;;;;;;;;;5112944;28;20032;-78
2022/01/01 01:15:24;;;;;;;4.40;2.55;;;;;;;;;;5112780;28;20027;-77
2022/01/01 01:17:51;;;;;;;4.50;2.03;;;;;;;;;;5112797;28;20394;-77
2022/01/01 01:20:17;;;;;;;5.45;2.88;;;;;;;;;;5112877;28;20020;-78
2022/01/01 01:22:44;;;;;;;6.05;2.40;;;;;;;;;;5112677;28;20028;-77
2022/01/01 01:25:10;;;;;;;6.00;2.78;;;;;;;;;;5112557;28;20076;-78
2022/01/01 01:27:37;;;;;;;4.00;2.70;;;;;;;;;;5112615;28;20088;-77
2022/01/01 01:30:08;;;;;;;5.72;2.65;;;;;;;;;;5112528;28;20471;-78
2022/01/01 01:32:34;;;;;;;6.00;2.50;;;;;;;;;;5094401;28;20494;-78
2022/01/01 01:35:00;;;;;;;6.47;3.13;;;;;;;;;;5112483;28;20372;-78
2022/01/01 01:37:28;;;;;;;4.22;2.28;;;;;;;;;;5112472;28;20077;-78
2022/01/01 01:39:55;;;;;;;5.15;2.55;;;;;;;;;;5112473;28;20027;-77
2022/01/01 01:42:21;;;;;;;5.20;3.00;;;;;;;;;;5094207;28;20114;-78
2022/01/01 01:44:48;;;;;;;8.35;3.22;;;;;;;;;;5094239;28;20115;-78
2022/01/01 01:47:16;;;;;;;5.60;3.05;;;;;;;;;;5112293;28;20039;-78
2022/01/01 01:49:44;;;;;;;5.40;2.75;;;;;;;;;;5112427;28;20020;-78
2022/01/01 01:52:10;;;;;;;6.35;2.90;;;;;;;;;;5112189;28;20028;-78
2022/01/01 01:54:36;;;;;;;5.85;2.80;;;;;;;;;;5112241;28;20026;-78
2022/01/01 01:57:03;;;;;;;4.95;2.63;;;;;;;;;;5112203;28;20028;-77
2022/01/01 01:59:29;;;;;;;5.47;2.95;;;;;;;;;;5112212;28;20031;-78
2022/01/01 02:01:55;;;;;;;5.53;3.00;;;;;;;;;;5112111;28;20027;-78
2022/01/01 02:04:21;;;;;;;6.35;2.90;;;;;;;;;;5093832;28;20481;-77
2022/01/01 02:06:48;;;;;;;7.47;3.00;;;;;;;;;;5112324;28;20168;-77
2022/01/01 02:09:14;;;;;;;4.03;2.38;;;;;;;;;;5111982;28;20027;-77
2022/01/01 02:11:40;;;;;;;6.32;2.88;;;;;;;;;;5112089;28;20467;-77
2022/01/01 02:14:16;;;;;;;4.60;2.65;;;;;;;;;;5112095;28;20024;-77
2022/01/01 02:19:24;;;;;;;5.00;2.63;;;;;;;;;;5116074;28;20523;-78
2022/01/01 02:21:52;;;;;;;4.70;2.70;;;;;;;;;;5116454;28;20031;-78
2022/01/01 02:24:17;;;;;;;5.40;2.75;;;;;;;;;;5098089;28;20020;-78
2022/01/01 02:26:43;;;;;;;4.70;2.65;;;;;;;;;;5097561;28;20063;-78
2022/01/01 02:29:10;;;;;;;5.32;2.80;;;;;;;;;;5097607;28;20471;-78
2022/01/01 02:31:36;;;;;;;4.72;2.92;;;;;;;;;;5097679;28;20032;-78
2022/01/01 02:34:03;;;;;;;5.45;2.72;;;;;;;;;;5115938;28;20540;-78
2022/01/01 02:36:34;;;;;;;5.38;3.22;;;;;;;;;;5116011;28;20063;-78
2022/01/01 02:39:00;;;;;;;7.00;3.00;;;;;;;;;;5115716;28;20518;-78
2022/01/01 02:41:27;;;;;;;5.18;2.65;;;;;;;;;;5115615;28;20094;-78
2022/01/01 02:43:53;;;;;;;7.45;3.03;;;;;;;;;;5115661;28;20445;-77
2022/01/01 02:46:19;;;;;;;5.22;2.88;;;;;;;;;;5115886;28;20482;-77
2022/01/01 02:48:45;;;;;;;6.57;3.15;;;;;;;;;;5115649;28;20023;-78
2022/01/01 02:51:11;;;;;;;6.15;3.47;;;;;;;;;;5115503;28;20032;-78
2022/01/01 02:53:41;;;;;;;5.75;2.90;;;;;;;;;;5115647;28;20383;-77
2022/01/01 02:56:07;;;;;;;4.65;2.95;;;;;;;;;;5115386;28;20034;-77
2022/01/01 02:58:33;;;;;;;6.32;3.00;;;;;;;;;;5115487;28;20020;-77
2022/01/01 03:00:59;;;;;;;4.22;3.08;;;;;;;;;;5115456;28;20035;-77
2022/01/01 03:03:25;;;;;;;5.25;3.13;;;;;;;;;;5115355;28;20424;-77
2022/01/01 03:05:50;;;;;;;4.15;2.70;;;;;;;;;;5097122;28;20067;-77
2022/01/01 03:08:16;;;;;;;5.35;3.05;;;;;;;;;;5115278;28;20383;-77
2022/01/01 03:10:43;;;;;;;6.18;3.30;;;;;;;;;;5115170;28;20035;-77
2022/01/01 03:13:09;;;;;;;7.65;3.83;;;;;;;;;;5115189;28;20030;-77
2022/01/01 03:15:35;;;;;;;5.05;3.10;;;;;;;;;;5115128;28;20035;-77
2022/01/01 03:18:02;;;;;;;5.70;3.22;;;;;;;;;;5096670;28;20080;-77
2022/01/01 03:20:28;;;;;;;4.75;3.08;;;;;;;;;;5115093;28;20026;-77
2022/01/01 03:22:54;;;;;;;5.95;3.50;;;;;;;;;;5096544;28;20114;-77
2022/01/01 03:25:20;;;;;;;5.57;3.05;;;;;;;;;;5115115;28;20039;-77
2022/01/01 03:27:46;;;;;;;6.30;2.90;;;;;;;;;;5114793;28;20024;-77
2022/01/01 03:30:12;;;;;;;4.95;3.42;;;;;;;;;;5113941;28;20486;-77
2022/01/01 03:32:38;;;;;;;6.22;3.47;;;;;;;;;;5096452;28;20019;-77
2022/01/01 03:35:04;;;;;;;5.15;3.10;;;;;;;;;;5114710;28;20032;-77
2022/01/01 03:37:30;;;;;;;6.93;3.42;;;;;;;;;;5114719;28;20019;-77
2022/01/01 03:39:56;;;;;;;4.82;2.83;;;;;;;;;;5114550;28;20024;-77
2022/01/01 03:42:22;;;;;;;5.45;3.55;;;;;;;;;;5114833;28;20039;-77
2022/01/01 03:44:48;;;;;;;4.65;3.35;;;;;;;;;;5114646;28;20038;-77
2022/01/01 03:47:14;;;;;;;4.60;3.05;;;;;;;;;;5114549;28;20399;-77
2022/01/01 03:49:40;;;;;;;4.13;3.15;;;;;;;;;;5114453;28;20020;-77
2022/01/01 03:52:06;;;;;;;4.05;2.75;;;;;;;;;;5114362;28;20027;-77
2022/01/01 03:54:32;;;;;;;6.15;3.22;;;;;;;;;;5114293;28;20023;-77
2022/01/01 03:56:59;;;;;;;4.38;2.92;;;;;;;;;;5114462;28;20059;-77
2022/01/01 03:59:25;;;;;;;4.20;3.33;;;;;;;;;;5114360;28;20076;-77
2022/01/01 04:01:51;;;;;;;7.63;3.63;;;;;;;;;;5096193;28;20055;-77
2022/01/01 04:04:21;;;;;;;6.68;3.50;;;;;;;;;;5114228;28;20075;-77
2022/01/01 04:06:47;;;;;;;5.28;3.15;;;;;;;;;;5113949;28;20123;-77
2022/01/01 04:09:14;;;;;;;4.50;3.35;;;;;;;;;;5114105;28;20031;-77
2022/01/01 04:11:40;;;;;;;4.65;3.25;;;;;;;;;;5114069;28;20028;-77
2022/01/01 04:14:11;;;;;;;6.72;3.85;;;;;;;;;;5095589;28;20444;-77
2022/01/01 04:16:37;;;;;;;5.53;3.72;;;;;;;;;;5095575;28;20094;-78
2022/01/01 04:19:03;;;;;;;7.75;4.13;;;;;;;;;;5113913;28;20461;-77
2022/01/01 04:21:29;;;;;;;4.65;3.40;;;;;;;;;;5113739;28;20059;-78
2022/01/01 04:23:55;;;;;;;5.78;3.28;;;;;;;;;;5113832;28;20019;-78
2022/01/01 04:26:21;;;;;;;4.28;3.42;;;;;;;;;;5113890;28;20039;-78
2022/01/01 04:28:47;;;;;;;5.18;3.55;;;;;;;;;;5113693;28;20109;-78
2022/01/01 04:31:15;;;;;;;5.82;3.60;;;;;;;;;;5113613;28;20399;-78
2022/01/01 04:33:41;;;;;;;5.35;3.80;;;;;;;;;;5113590;28;20077;-78
2022/01/01 04:36:07;;;;;;;4.80;3.20;;;;;;;;;;5113492;28;20024;-78
2022/01/01 04:38:44;;;;;;;4.78;3.67;;;;;;;;;;5095149;28;20444;-78
2022/01/01 04:41:12;;;;;;;6.32;3.75;;;;;;;;;;5113475;28;20031;-78
2022/01/01 04:43:39;;;;;;;6.57;3.92;;;;;;;;;;5113295;28;20031;-78
2022/01/01 04:46:05;;;;;;;6.60;4.53;;;;;;;;;;5094901;28;20066;-78
2022/01/01 04:48:31;;;;;;;6.82;4.60;;;;;;;;;;5113422;28;20094;-78
2022/01/01 04:50:57;;;;;;;6.57;4.03;;;;;;;;;;5113279;28;20035;-77
2022/01/01 04:53:23;;;;;;;5.57;3.88;;;;;;;;;;5113466;28;20379;-76
2022/01/01 04:55:50;;;;;;;5.35;3.92;;;;;;;;;;5113221;28;20024;-77
2022/01/01 04:58:16;;;;;;;7.40;4.18;;;;;;;;;;5094790;28;20020;-77
2022/01/01 05:00:42;;;;;;;6.65;4.43;;;;;;;;;;5113078;28;20023;-77
2022/01/01 05:03:08;;;;;;;5.80;4.43;;;;;;;;;;5112905;28;20019;-77
2022/01/01 05:05:34;;;;;;;7.72;4.80;;;;;;;;;;5112845;28;20046;-77
2022/01/01 05:08:00;;;;;;;6.47;4.15;;;;;;;;;;5112924;28;20016;-78
2022/01/01 05:10:26;;;;;;;6.00;4.20;;;;;;;;;;5112947;28;20027;-78
2022/01/01 05:12:53;;;;;;;6.53;4.70;;;;;;;;;;5113100;28;20026;-78
2022/01/01 05:15:19;;;;;;;6.40;4.68;;;;;;;;;;5112796;28;20088;-78
2022/01/01 05:17:45;;;;;;;6.82;4.68;;;;;;;;;;5112773;28;20087;-77
2022/01/01 05:20:11;;;;;;;8.07;4.70;;;;;;;;;;5112859;28;20073;-78
2022/01/01 05:22:37;;;;;;;6.97;4.57;;;;;;;;;;5112669;28;20051;-78
2022/01/01 05:25:05;;;;;;;8.40;5.40;;;;;;;;;;5112623;28;20028;-79
2022/01/01 05:27:34;;;;;;;6.75;4.97;;;;;;;;;;5112714;28;20024;-79
2022/01/01 05:30:01;;;;;;;5.55;4.35;;;;;;;;;;5112710;28;20402;-78
2022/01/01 05:32:27;;;;;;;6.45;4.70;;;;;;;;;;5112352;28;20467;-77
2022/01/01 05:34:53;;;;;;;6.72;4.82;;;;;;;;;;5112749;28;20051;-77
2022/01/01 05:37:19;;;;;;;6.65;5.20;;;;;;;;;;5094125;28;20514;-78
2022/01/01 05:39:45;;;;;;;5.90;3.97;;;;;;;;;;5112419;28;20111;-78
2022/01/01 05:42:11;;;;;;;7.38;5.07;;;;;;;;;;5112393;28;20073;-78
2022/01/01 05:44:37;;;;;;;5.35;3.97;;;;;;;;;;5112276;28;20034;-78
2022/01/01 05:47:03;;;;;;;5.57;3.90;;;;;;;;;;5093949;28;20087;-78
2022/01/01 05:49:29;;;;;;;4.82;4.07;;;;;;;;;;5112330;28;20019;-78
2022/01/01 05:51:55;;;;;;;5.68;3.88;;;;;;;;;;5112257;28;20394;-78
2022/01/01 05:54:21;;;;;;;6.40;4.68;;;;;;;;;;5112425;28;20098;-78
2022/01/01 05:56:47;;;;;;;7.47;4.38;;;;;;;;;;5112302;28;20026;-79
2022/01/01 05:59:13;;;;;;;8.73;4.20;;;;;;;;;;5112142;28;20020;-79
2022/01/01 06:01:39;;;;;;;7.22;4.43;;;;;;;;;;5093898;28;20020;-79
2022/01/01 06:04:05;;;;;;;6.70;4.65;;;;;;;;;;5112218;28;20085;-79
2022/01/01 06:06:31;;;;;;;6.95;4.18;;;;;;;;;;5112057;28;20032;-78
2022/01/01 06:08:57;;;;;;;9.25;4.03;;;;;;;;;;5112053;28;20020;-78
2022/01/01 06:11:23;;;;;;;7.82;4.80;;;;;;;;;;5112281;28;20024;-78
2022/01/01 06:13:49;;;;;;;7.28;4.82;;;;;;;;;;5112120;28;20483;-78
2022/01/01 06:16:15;;;;;;;7.00;4.55;;;;;;;;;;5111995;28;20019;-78
2022/01/01 06:18:41;;;;;;;7.03;5.30;;;;;;;;;;5112095;28;20020;-77
2022/01/01 06:21:07;;;;;;;6.68;4.75;;;;;;;;;;5094014;28;20051;-76
2022/01/01 06:23:37;;;;;;;6.10;4.07;;;;;;;;;;5111950;28;20026;-77
2022/01/01 06:26:03;;;;;;;7.50;4.57;;;;;;;;;;5111911;28;20024;-77
2022/01/01 06:28:29;;;;;;;8.00;4.70;;;;;;;;;;5111827;28;20024;-77
2022/01/01 06:30:55;;;;;;;9.48;5.72;;;;;;;;;;5112213;28;20129;-77
2022/01/01 06:33:22;;;;;;;7.50;4.68;;;;;;;;;;5093753;28;20118;-77
2022/01/01 06:35:51;;;;;;;8.20;5.30;;;;;;;;;;5093546;28;20016;-78
2022/01/01 06:38:17;;;;;;;6.72;4.72;;;;;;;;;;5111813;28;20461;-77
2022/01/01 06:40:44;;;;;;;7.05;5.30;;;;;;;;;;5111751;28;20100;-77
2022/01/01 06:43:11;;;;;;;7.55;4.93;;;;;;;;;;5111733;28;20111;-77
2022/01/01 06:45:37;;;;;;;6.82;4.93;;;;;;;;;;5111749;28;20046;-77
2022/01/01 06:48:03;;;;;;;6.72;5.28;;;;;;;;;;5111706;28;20540;-78
2022/01/01 06:50:29;;;;;;;8.70;5.18;;;;;;;;;;5093671;28;20498;-77
2022/01/01 06:52:55;;;;;;;8.48;5.15;;;;;;;;;;5112029;28;20023;-77
2022/01/01 06:55:21;;;;;;;7.60;4.93;;;;;;;;;;5111657;28;20491;-76
2022/01/01 06:57:47;;;;;;;7.75;5.60;;;;;;;;;;5111430;28;20439;-77
2022/01/01 07:00:14;;;;;;;7.00;5.32;;;;;;;;;;5111683;28;20085;-77
2022/01/01 07:02:45;;;;;;;6.80;4.60;;;;;;;;;;5111596;28;20073;-77
2022/01/01 07:05:12;;;;;;;8.38;5.80;;;;;;;;;;5113483;28;20031;-77
2022/01/01 07:07:38;;;;;;;8.10;5.65;;;;;;;;;;5115242;28;20036;-78
2022/01/01 07:10:05;;;;;;;7.68;4.90;;;;;;;;;;5115259;28;20027;-77
2022/01/01 07:12:31;;;;;;;7.50;5.05;;;;;;;;;;5115150;28;20031;-77
2022/01/01 07:14:57;;;;;;;7.07;4.82;;;;;;;;;;5115424;28;20020;-77
2022/01/01 07:17:23;;;;;;;10.27;5.70;;;;;;;;;;5115466;28;20140;-77
2022/01/01 07:19:49;;;;;;;6.57;4.53;;;;;;;;;;5115086;28;20056;-78
2022/01/01 07:22:15;;;;;;;8.13;5.50;;;;;;;;;;5114945;28;20027;-77
2022/01/01 07:24:41;;;;;;;6.82;4.80;;;;;;;;;;5114941;28;20024;-77
2022/01/01 07:27:07;;;;;;;9.15;5.18;;;;;;;;;;5114839;28;20118;-77
2022/01/01 07:29:33;;;;;;;9.15;6.80;;;;;;;;;;5115090;28;20483;-77
2022/01/01 07:31:59;;;;;;;6.90;4.95;;;;;;;;;;5114779;28;20031;-77
2022/01/01 07:34:25;;;;;;;6.78;5.03;;;;;;;;;;5115102;28;20020;-77
2022/01/01 07:36:51;;;;;;;7.53;5.03;;;;;;;;;;5114732;28;20042;-77
2022/01/01 07:39:17;;;;;;;7.60;4.47;;;;;;;;;;5114601;28;20084;-77
2022/01/01 07:41:43;;;;;;;8.80;5.82;;;;;;;;;;5114557;28;20019;-79
2022/01/01 07:44:10;;;;;;;7.85;5.72;;;;;;;;;;5096167;28;20031;-78
2022/01/01 07:46:36;;;;;;;7.20;5.43;;;;;;;;;;5114475;28;20027;-78
2022/01/01 07:49:02;;;;;;;8.52;5.53;;;;;;;;;;5114565;28;20383;-78
2022/01/01 07:51:28;;;;;;;7.53;5.32;;;;;;;;;;5114421;28;20110;-77
2022/01/01 07:53:54;;;;;;;9.68;6.05;;;;;;;;;;5114570;28;20529;-77
2022/01/01 07:56:20;;;;;;;7.50;5.90;;;;;;;;;;5114356;28;20030;-77
2022/01/01 07:58:46;;;;;;;8.15;6.30;;;;;;;;;;5114360;28;20027;-78
2022/01/01 08:01:12;;;;;;;7.55;5.82;;;;;;;;;;5114322;28;20039;-77
2022/01/01 08:03:38;;;;;;;7.32;5.25;;;;;;;;;;5114188;28;20099;-77
2022/01/01 08:06:04;;;;;;;6.82;5.28;;;;;;;;;;5114074;28;20123;-77
2022/01/01 08:08:30;;;;;;;7.95;5.90;;;;;;;;;;5095658;28;20101;-77
2022/01/01 08:10:58;;;;;;;8.85;5.43;;;;;;;;;;5096027;28;20023;-77
2022/01/01 08:13:25;;;;;;;7.32;5.68;;;;;;;;;;5095990;28;20399;-77
2022/01/01 08:15:52;;;;;;;6.75;5.50;;;;;;;;;;5113625;28;20020;-77
2022/01/01 08:18:18;;;;;;;9.27;5.68;;;;;;;;;;5095684;28;20119;-77
2022/01/01 08:20:44;;;;;;;7.65;5.28;;;;;;;;;;5113790;28;20031;-77
2022/01/01 08:23:11;;;;;;;7.18;5.57;;;;;;;;;;5113720;28;20472;-77
2022/01/01 08:25:37;;;;;;;8.98;6.20;;;;;;;;;;5113759;28;20083;-77
2022/01/01 08:28:03;;;;;;;7.53;5.80;;;;;;;;;;5113720;28;20023;-77
2022/01/01 08:30:29;;;;;;;8.32;5.70;;;;;;;;;;5113703;28;20104;-77
2022/01/01 08:33:01;;;;;;;8.98;5.82;;;;;;;;;;5113865;28;20028;-77
2022/01/01 08:35:27;;;;;;;7.03;5.00;;;;;;;;;;5113955;28;20016;-78
2022/01/01 08:37:53;;;;;;;7.53;5.18;;;;;;;;;;5113539;28;20124;-77
2022/01/01 08:40:19;;;;;;;7.78;5.22;;;;;;;;;;5113499;28;20028;-77
2022/01/01 08:42:45;;;;;;;7.05;5.03;;;;;;;;;;5113374;28;20020;-77
2022/01/01 08:45:11;;;;;;;8.32;5.50;;;;;;;;;;5113131;28;20509;-77
2022/01/01 08:47:37;;;;;;;8.35;5.85;;;;;;;;;;5113299;28;20505;-77
2022/01/01 08:50:04;;;;;;;6.97;4.72;;;;;;;;;;5113328;28;20015;-77
2022/01/01 08:52:30;;;;;;;7.50;5.35;;;;;;;;;;5113309;28;20474;-78
2022/01/01 08:54:56;;;;;;;6.63;4.85;;;;;;;;;;5113405;28;20023;-77
2022/01/01 08:57:22;;;;;;;8.18;5.38;;;;;;;;;;5113187;28;20479;-77
2022/01/01 08:59:48;;;;;;;6.82;5.10;;;;;;;;;;5113191;28;20050;-79
2022/01/01 09:02:14;;;;;;;7.00;5.00;;;;;;;;;;5113003;28;20055;-80
2022/01/01 09:04:40;;;;;;;7.88;5.05;;;;;;;;;;5112936;28;20023;-80
2022/01/01 09:07:06;;;;;;;7.97;4.90;;;;;;;;;;5112859;28;20036;-80
2022/01/01 09:09:32;;;;;;;6.15;4.63;;;;;;;;;;5113076;28;20028;-80
2022/01/01 09:11:58;;;;;;;6.47;4.32;;;;;;;;;;5112959;28;20030;-80
2022/01/01 09:14:24;;;;;;;6.60;4.82;;;;;;;;;;5094594;28;20032;-81
2022/01/01 09:16:50;;;;;;;7.07;4.30;;;;;;;;;;5112774;28;20042;-78
2022/01/01 09:19:18;;;;;;;8.25;4.95;;;;;;;;;;5112235;28;20475;-81
2022/01/01 09:21:44;;;;;;;7.75;5.18;;;;;;;;;;5112488;28;20024;-81
2022/01/01 09:24:10;;;;;;;6.03;4.50;;;;;;;;;;5112614;28;20106;-82
2022/01/01 09:26:36;;;;;;;6.80;5.07;;;;;;;;;;5112233;28;20489;-76
2022/01/01 09:29:04;;;;;;;6.70;4.60;;;;;;;;;;5112303;28;20510;-79
2022/01/01 09:31:30;;;;;;;7.47;4.97;;;;;;;;;;5112560;28;20501;-78
2022/01/01 09:33:56;;;;;;;8.20;5.20;;;;;;;;;;5112698;28;20066;-78
2022/01/01 09:36:22;;;;;;;7.03;5.18;;;;;;;;;;5111965;28;20110;-80
2022/01/01 09:38:49;;;;;;;9.65;5.93;;;;;;;;;;5112330;28;20055;-80
2022/01/01 09:41:16;;;;;;;8.88;6.18;;;;;;;;;;5111885;28;20409;-79
2022/01/01 09:43:42;;;;;;;11.60;7.00;;;;;;;;;;5111284;28;20051;-80
2022/01/01 09:46:12;;;;;;;10.88;7.18;;;;;;;;;;5110637;28;20077;-79
2022/01/01 09:48:39;;;;;;;12.52;7.10;;;;;;;;;;5108551;28;20048;-78
2022/01/01 09:51:06;;;;;;;12.43;8.07;;;;;;;;;;5110694;28;20022;-79
2022/01/01 09:53:33;;;;;;;13.90;9.18;;;;;;;;;;5093451;28;20034;-79
2022/01/01 09:56:00;;;;;;;14.73;8.80;;;;;;;;;;5112174;28;20396;-80
2022/01/01 09:58:28;;;;;;;23.60;13.15;;;;;;;;;;5112529;28;20034;-80
2022/01/01 10:00:54;;;;;;;19.17;11.52;;;;;;;;;;5093880;28;20020;-80
2022/01/01 10:03:40;;;;;;;18.52;11.43;;;;;;;;;;5112111;28;20034;-79
2022/01/01 10:06:12;;;;;;;17.55;9.85;;;;;;;;;;5112171;28;20402;-79
2022/01/01 10:08:39;;;;;;;18.30;11.30;;;;;;;;;;5093358;28;21459;-77
2022/01/01 10:11:05;;;;;;;16.75;10.98;;;;;;;;;;5107573;28;20102;-78
2022/01/01 10:13:36;;;;;;;22.85;17.33;;;;;;;;;;5111218;28;20062;-76
2022/01/01 10:16:03;;;;;;;19.20;14.27;;;;;;;;;;5110869;28;20015;-76
2022/01/01 10:18:30;;;;;;;28.08;18.92;;;;;;;;;;5112234;28;20088;-77
2022/01/01 10:20:57;;;;;;;30.58;24.30;;;;;;;;;;5111760;28;20028;-79
2022/01/01 10:23:27;;;;;;;29.95;23.38;;;;;;;;;;5111832;28;20024;-78
2022/01/01 10:28:37;;;;;;;26.48;21.35;;;;;;;;;;5111523;28;20143;-78
2022/01/01 10:31:08;;;;;;;24.95;18.38;;;;;;;;;;5111835;28;20024;-78
2022/01/01 10:33:34;;;;;;;24.73;18.95;;;;;;;;;;5111562;28;20076;-77
2022/01/01 10:36:06;;;;;;;24.13;17.63;;;;;;;;;;5112031;28;20391;-77
2022/01/01 10:38:32;;;;;;;23.75;16.23;;;;;;;;;;5113163;28;20059;-77
2022/01/01 10:41:10;;;;;;;21.70;15.35;;;;;;;;;;5116023;28;20020;-78
2022/01/01 10:43:36;;;;;;;21.80;15.27;;;;;;;;;;5095209;28;20032;-76
2022/01/01 10:46:04;;;;;;;19.50;15.63;;;;;;;;;;5105796;28;20028;-77
2022/01/01 10:51:02;;;;;;;18.00;13.85;;;;;;;;;;5115423;28;20042;-77
2022/01/01 10:53:29;;;;;;;22.33;12.95;;;;;;;;;;5115821;28;20023;-78
2022/01/01 10:55:56;;;;;;;17.35;11.85;;;;;;;;;;5115460;28;20081;-78
2022/01/01 10:58:24;;;;;;;19.15;12.55;;;;;;;;;;5115424;28;20040;-78
2022/01/01 11:00:51;;;;;;;15.50;10.05;;;;;;;;;;5115403;28;20071;-77
2022/01/01 11:03:18;;;;;;;18.90;11.32;;;;;;;;;;5097087;28;20403;-78
2022/01/01 11:05:45;;;;;;;24.73;10.63;;;;;;;;;;5115256;28;20494;-78
2022/01/01 11:08:11;;;;;;;17.40;9.75;;;;;;;;;;5096885;28;20031;-79
2022/01/01 11:10:38;;;;;;;15.82;8.98;;;;;;;;;;5115206;28;20019;-78
2022/01/01 11:13:05;;;;;;;19.45;9.95;;;;;;;;;;5115198;28;20019;-78
2022/01/01 11:15:31;;;;;;;19.98;9.10;;;;;;;;;;5097060;28;20022;-79
2022/01/01 11:17:58;;;;;;;27.80;10.38;;;;;;;;;;5115179;28;20020;-78
2022/01/01 11:20:25;;;;;;;23.63;10.20;;;;;;;;;;5115071;28;20483;-79
2022/01/01 11:22:51;;;;;;;20.92;9.52;;;;;;;;;;5115033;28;20077;-80
2022/01/01 11:25:17;;;;;;;28.23;9.10;;;;;;;;;;5115000;28;20019;-79
2022/01/01 11:27:45;;;;;;;20.05;9.00;;;;;;;;;;5114935;28;20471;-78
2022/01/01 11:30:11;;;;;;;18.42;9.13;;;;;;;;;;5114871;28;20015;-77
2022/01/01 11:32:37;;;;;;;18.15;9.80;;;;;;;;;;5114702;28;20028;-79
2022/01/01 11:35:21;;;;;;;12.55;8.77;;;;;;;;;;5114762;28;20026;-80
2022/01/01 11:38:03;;;;;;;18.02;8.48;;;;;;;;;;5096115;28;20072;-79
2022/01/01 11:40:33;;;;;;;19.67;8.40;;;;;;;;;;5096476;28;20032;-84
2022/01/01 11:42:59;;;;;;;18.25;8.95;;;;;;;;;;5096603;28;20015;-80
2022/01/01 11:45:41;;;;;;;19.38;8.82;;;;;;;;;;5114252;28;20127;-77
2022/01/01 11:48:25;;;;;;;11.13;7.60;;;;;;;;;;5114641;28;20498;-78
2022/01/01 11:50:51;;;;;;;17.48;7.95;;;;;;;;;;5113793;28;20096;-78
2022/01/01 11:53:33;;;;;;;13.60;8.18;;;;;;;;;;5114477;28;20110;-76
2022/01/01 11:56:11;;;;;;;15.80;7.32;;;;;;;;;;5114744;28;20024;-78
2022/01/01 11:58:47;;;;;;;15.30;7.80;;;;;;;;;;5114428;28;20046;-77
2022/01/01 12:01:13;;;;;;;;;;;;;;;;;;5114745;28;20031;-78
2022/01/01 12:03:49;;;;;;;12.93;5.80;;;;;;;;;;5114321;28;20322;-80
2022/01/01 12:06:15;;;;;;;20.00;6.45;;;;;;;;;;5113559;28;20043;-78
2022/01/01 12:08:42;;;;;;;15.77;7.38;;;;;;;;;;5114270;28;20031;-80
2022/01/01 12:11:08;;;;;;;22.30;6.80;;;;;;;;;;5114223;28;20498;-80
2022/01/01 12:13:38;;;;;;;10.07;6.10;;;;;;;;;;5114334;28;20031;-81
2022/01/01 12:16:20;;;;;;;12.63;6.45;;;;;;;;;;5096165;28;20031;-78
2022/01/01 12:18:46;;;;;;;14.23;6.35;;;;;;;;;;5114190;28;20020;-83
2022/01/01 12:21:19;;;;;;;15.45;7.20;;;;;;;;;;5113921;28;20035;-82
2022/01/01 12:23:48;;;;;;;15.52;7.30;;;;;;;;;;5113101;28;20051;-78
2022/01/01 12:26:14;;;;;;;11.13;6.22;;;;;;;;;;5095350;28;20031;-79
2022/01/01 12:28:43;;;;;;;12.80;6.97;;;;;;;;;;5113742;28;20027;-79
2022/01/01 12:31:10;;;;;;;15.82;7.18;;;;;;;;;;5113708;28;20035;-82
2022/01/01 12:33:39;;;;;;;9.88;6.57;;;;;;;;;;5113589;28;20479;-80
2022/01/01 12:36:06;;;;;;;14.38;6.28;;;;;;;;;;5095246;28;20051;-78
2022/01/01 12:38:33;;;;;;;16.25;6.60;;;;;;;;;;5113887;28;20495;-79
2022/01/01 12:40:59;;;;;;;10.80;6.72;;;;;;;;;;5113869;28;20039;-77
2022/01/01 12:43:26;;;;;;;19.02;6.78;;;;;;;;;;5113334;28;20495;-85
2022/01/01 12:45:53;;;;;;;17.38;6.28;;;;;;;;;;5113435;28;20042;-80
2022/01/01 12:48:23;;;;;;;14.90;6.53;;;;;;;;;;5095187;28;20387;-81
2022/01/01 12:50:55;;;;;;;9.07;6.05;;;;;;;;;;5095257;28;20483;-81
2022/01/01 12:53:21;;;;;;;10.75;5.95;;;;;;;;;;5113442;28;20019;-82
2022/01/01 12:55:57;;;;;;;9.40;6.45;;;;;;;;;;5113206;28;20028;-82
2022/01/01 12:58:23;;;;;;;10.18;5.75;;;;;;;;;;5113124;28;20028;-80
2022/01/01 13:00:49;;;;;;;11.88;6.38;;;;;;;;;;5113196;28;20383;-82
2022/01/01 13:03:15;;;;;;;10.43;6.32;;;;;;;;;;5112124;28;20031;-80
2022/01/01 13:05:41;;;;;;;9.10;5.95;;;;;;;;;;5112296;28;20054;-80
2022/01/01 13:08:08;;;;;;;10.30;6.38;;;;;;;;;;5094581;28;20096;-84
2022/01/01 13:10:34;;;;;;;10.35;5.32;;;;;;;;;;5113339;28;20032;-87
2022/01/01 13:13:05;;;;;;;11.18;5.93;;;;;;;;;;5113270;28;20024;-83
2022/01/01 13:15:34;;;;;;;11.23;6.45;;;;;;;;;;5112997;28;20535;-79
2022/01/01 13:18:00;;;;;;;9.65;6.00;;;;;;;;;;5113016;28;20027;-79
2022/01/01 13:20:26;;;;;;;9.20;5.38;;;;;;;;;;5112918;28;20031;-82
2022/01/01 13:23:03;;;;;;;9.13;5.70;;;;;;;;;;5112811;28;20023;-82
2022/01/01 13:25:29;;;;;;;9.63;5.47;;;;;;;;;;5112745;28;20504;-83
2022/01/01 13:27:55;;;;;;;8.82;4.97;;;;;;;;;;5112664;28;20059;-78
2022/01/01 13:30:24;;;;;;;11.38;5.43;;;;;;;;;;5112764;28;20058;-78
2022/01/01 13:32:51;;;;;;;9.07;5.35;;;;;;;;;;5115345;28;20386;-85
2022/01/01 13:35:28;;;;;;;9.82;5.55;;;;;;;;;;5120295;28;20015;-83
2022/01/01 13:37:57;;;;;;;8.02;4.80;;;;;;;;;;5120289;28;20023;-87
2022/01/01 13:40:23;;;;;;;8.57;4.82;;;;;;;;;;5096901;28;20019;-89
2022/01/01 13:42:50;;;;;;;6.82;4.32;;;;;;;;;;5114672;28;20081;-85
2022/01/01 13:45:16;;;;;;;8.95;4.05;;;;;;;;;;5112606;28;20027;-79
2022/01/01 13:47:42;;;;;;;9.43;4.18;;;;;;;;;;5112615;28;20038;-81
2022/01/01 13:50:12;;;;;;;7.47;4.32;;;;;;;;;;5095503;28;20395;-79
2022/01/01 13:52:38;;;;;;;7.32;4.85;;;;;;;;;;5112640;28;20024;-81
2022/01/01 13:55:07;;;;;;;5.18;3.03;;;;;;;;;;5113350;28;20024;-83
2022/01/01 13:57:35;;;;;;;5.13;2.97;;;;;;;;;;5094586;28;20027;-89
2022/01/01 14:00:02;;;;;;;5.93;3.72;;;;;;;;;;5112392;28;20107;-81
2022/01/01 14:02:29;;;;;;;6.22;3.60;;;;;;;;;;5112456;28;20478;-79
2022/01/01 14:05:00;;;;;;;4.78;3.30;;;;;;;;;;5112155;28;20023;-82
2022/01/01 14:07:26;;;;;;;6.50;3.22;;;;;;;;;;5112084;28;20115;-82
2022/01/01 14:10:01;;;;;;;6.90;3.05;;;;;;;;;;5094056;28;20054;-84
2022/01/01 14:12:28;;;;;;;6.05;2.97;;;;;;;;;;5112262;28;20034;-85
2022/01/01 14:15:00;;;;;;;5.60;2.60;;;;;;;;;;5115414;28;20106;-83
2022/01/01 14:17:26;;;;;;;5.28;3.13;;;;;;;;;;5116229;28;20027;-82
2022/01/01 14:19:52;;;;;;;4.97;3.08;;;;;;;;;;5116311;28;20039;-82
2022/01/01 14:22:18;;;;;;;4.43;2.53;;;;;;;;;;5097865;28;20032;-86
2022/01/01 14:24:51;;;;;;;5.78;3.30;;;;;;;;;;5116121;28;20024;-81
2022/01/01 14:27:17;;;;;;;4.30;2.67;;;;;;;;;;5116168;28;20042;-81
2022/01/01 14:29:43;;;;;;;4.18;2.90;;;;;;;;;;5115763;28;20015;-82
2022/01/01 14:32:15;;;;;;;4.93;3.38;;;;;;;;;;5116217;28;20085;-81
2022/01/01 14:34:43;;;;;;;5.38;2.90;;;;;;;;;;5116026;28;20046;-77
2022/01/01 14:37:09;;;;;;;4.72;2.53;;;;;;;;;;5116188;28;20055;-78
2022/01/01 14:39:36;;;;;;;6.60;2.53;;;;;;;;;;5097949;28;20055;-83
2022/01/01 14:42:02;;;;;;;5.57;2.28;;;;;;;;;;5115917;28;20019;-80
2022/01/01 14:44:28;;;;;;;5.40;2.40;;;;;;;;;;5115687;28;20391;-79
2022/01/01 14:46:59;;;;;;;5.28;2.47;;;;;;;;;;5115691;28;20031;-81